Time;durP1;ratioP1;P1;durP2;ratioP2;P2;SDS_P1;SDS_P2;PMS_P1;PMS_P2;Temp;Humidity;BMP_temperature;BMP_pressure;BME280_temperature;BME280_humidity;BME280_pressure;Samples;Min_cycle;Max_cycle;Signal;HPM_P1;HPM_P2
2021/10/10 00:01:51;;;;;;;44.90;20.68;;;;;;;5.25;60.93;102458.98;1702629;82;25775;-64
2021/10/10 00:04:17;;;;;;;48.90;21.60;;;;;;;5.22;60.99;102453.64;1705289;82;26035;-63
2021/10/10 00:06:42;;;;;;;47.38;22.93;;;;;;;5.19;61.12;102447.90;1705935;81;25705;-64
2021/10/10 00:09:08;;;;;;;47.67;22.27;;;;;;;5.19;61.22;102445.67;1705145;81;27380;-64
2021/10/10 00:11:34;;;;;;;52.48;23.27;;;;;;;5.18;61.29;102447.45;1704226;81;26166;-64
2021/10/10 00:14:00;;;;;;;52.00;21.55;;;;;;;5.14;61.34;102446.08;1716428;80;26579;-64
2021/10/10 00:16:26;;;;;;;46.25;21.25;;;;;;;5.12;61.37;102447.84;1714132;80;28115;-64
2021/10/10 00:18:52;;;;;;;47.10;20.23;;;;;;;5.09;61.38;102444.72;1734219;80;26672;-64
2021/10/10 00:21:18;;;;;;;46.18;21.68;;;;;;;5.10;61.49;102444.28;1718978;81;27409;-64
2021/10/10 00:23:44;;;;;;;47.80;21.62;;;;;;;5.08;61.56;102449.58;1726907;80;25852;-65
2021/10/10 00:26:10;;;;;;;46.02;20.55;;;;;;;5.05;61.64;102443.35;1722825;81;25758;-65
2021/10/10 00:28:36;;;;;;;42.33;21.07;;;;;;;5.05;61.66;102441.58;1694595;82;26404;-66
2021/10/10 00:31:02;;;;;;;48.33;23.12;;;;;;;5.05;61.74;102440.25;1695016;82;25824;-64
2021/10/10 00:33:28;;;;;;;43.45;20.50;;;;;;;5.04;61.86;102446.89;1691636;82;29562;-64
2021/10/10 00:35:54;;;;;;;40.90;21.50;;;;;;;5.01;61.88;102438.89;1699646;82;25744;-64
2021/10/10 00:38:20;;;;;;;47.25;21.57;;;;;;;5.00;61.92;102435.78;1700838;82;25747;-64
2021/10/10 00:40:47;;;;;;;45.98;22.50;;;;;;;4.99;61.99;102434.00;1685472;82;26071;-64
2021/10/10 00:43:13;;;;;;;46.85;23.20;;;;;;;4.99;62.09;102439.31;1668706;82;25964;-65
2021/10/10 00:45:48;;;;;;;42.58;20.97;;;;;;;4.95;62.12;102436.18;1692289;82;27443;-64
2021/10/10 00:48:14;;;;;;;46.85;22.65;;;;;;;4.95;62.15;102434.85;1691725;82;25933;-64
2021/10/10 00:50:40;;;;;;;42.93;21.02;;;;;;;4.91;62.23;102433.94;1673253;83;26958;-64
2021/10/10 00:53:07;;;;;;;46.68;22.67;;;;;;;4.88;62.23;102433.47;1670069;84;25908;-64
2021/10/10 00:55:35;;;;;;;47.93;21.20;;;;;;;4.88;62.35;102429.48;1670422;84;25827;-66
2021/10/10 00:58:02;;;;;;;49.75;21.05;;;;;;;4.85;62.32;102426.80;1687361;82;27399;-64
2021/10/10 01:00:28;;;;;;;47.62;21.52;;;;;;;4.82;62.39;102432.53;1698126;82;25863;-63
2021/10/10 01:02:58;;;;;;;49.27;22.60;;;;;;;4.80;62.51;102428.97;1691925;82;25840;-66
2021/10/10 01:05:26;;;;;;;45.45;21.52;;;;;;;4.77;62.64;102426.28;1699519;82;26158;-64
2021/10/10 01:07:53;;;;;;;52.70;23.45;;;;;;;4.72;62.62;102426.24;1704768;82;25772;-64
2021/10/10 01:10:20;;;;;;;44.67;21.73;;;;;;;4.69;62.70;102424.00;1710640;82;25815;-64
2021/10/10 01:12:47;;;;;;;51.75;22.07;;;;;;;4.66;62.72;102424.86;1700935;82;26383;-64
2021/10/10 01:15:13;;;;;;;49.50;22.93;;;;;;;4.62;62.73;102421.72;1705596;82;25813;-64
2021/10/10 01:17:40;;;;;;;49.80;22.07;;;;;;;4.56;62.80;102421.22;1702363;82;28159;-64
2021/10/10 01:20:10;;;;;;;45.43;21.90;;;;;;;4.55;62.86;102419.87;1725597;80;25827;-64
2021/10/10 01:22:36;;;;;;;49.53;23.80;;;;;;;4.51;63.01;102415.41;1722607;81;26928;-63
2021/10/10 01:25:04;;;;;;;40.52;20.65;;;;;;;4.49;63.05;102421.14;1729989;81;26241;-63
2021/10/10 01:27:30;;;;;;;49.55;23.65;;;;;;;4.44;63.06;102416.23;1731420;81;25737;-63
2021/10/10 01:29:56;;;;;;;47.60;22.40;;;;;;;4.41;63.12;102416.20;1730459;81;25930;-64
2021/10/10 01:32:22;;;;;;;42.78;20.92;;;;;;;4.35;63.21;102411.71;1724335;81;25802;-64
2021/10/10 01:34:48;;;;;;;45.17;21.77;;;;;;;4.32;63.32;102409.46;1729188;81;27435;-64
2021/10/10 01:37:16;;;;;;;51.35;23.30;;;;;;;4.27;63.26;102406.77;1705125;83;25801;-63
2021/10/10 01:39:42;;;;;;;54.23;24.70;;;;;;;4.22;63.45;102404.05;1724238;81;26401;-63
2021/10/10 01:42:08;;;;;;;44.83;22.80;;;;;;;4.21;63.53;102405.37;1726441;81;26702;-63
2021/10/10 01:44:34;;;;;;;48.87;22.02;;;;;;;4.18;63.61;102402.24;1718190;81;25746;-63
2021/10/10 01:47:00;;;;;;;48.00;22.00;;;;;;;4.15;63.60;102398.23;1728504;81;27480;-64
2021/10/10 01:49:26;;;;;;;48.25;23.15;;;;;;;4.12;63.63;102398.63;1729070;81;26784;-64
2021/10/10 01:51:52;;;;;;;47.17;23.25;;;;;;;4.09;63.79;102403.47;1728273;81;31020;-64
2021/10/10 01:54:18;;;;;;;43.02;22.67;;;;;;;4.07;63.85;102399.91;1726183;81;26030;-63
2021/10/10 01:56:44;;;;;;;43.63;22.55;;;;;;;4.04;63.97;102401.20;1703877;81;26467;-64
2021/10/10 01:59:09;;;;;;;50.45;23.20;;;;;;;4.02;63.96;102400.29;1735616;81;29481;-64
2021/10/10 02:01:36;;;;;;;51.20;24.20;;;;;;;4.01;64.01;102391.88;1733499;81;34642;-63
2021/10/10 02:04:02;;;;;;;46.35;24.15;;;;;;;3.98;64.11;102390.52;1733458;81;25790;-63
2021/10/10 02:06:28;;;;;;;51.65;22.82;;;;;;;3.98;64.20;102400.23;1734159;81;26497;-66
2021/10/10 02:08:54;;;;;;;49.88;22.87;;;;;;;3.97;64.22;102394.04;1723580;80;26404;-65
2021/10/10 02:11:20;;;;;;;46.83;23.70;;;;;;;3.97;64.29;102398.45;1713245;81;27400;-64
2021/10/10 02:13:45;;;;;;;48.85;23.05;;;;;;;3.95;64.35;102389.16;1728516;80;34704;-64
2021/10/10 02:16:11;;;;;;;50.50;23.83;;;;;;;3.95;64.33;102394.45;1727136;81;26217;-65
2021/10/10 02:18:38;;;;;;;50.08;24.65;;;;;;;3.94;64.45;102386.48;1718332;81;26080;-64
2021/10/10 02:21:03;;;;;;;54.38;25.55;;;;;;;3.91;64.50;102388.66;1722190;79;25838;-64
2021/10/10 02:23:30;;;;;;;50.78;24.02;;;;;;;3.88;64.57;102388.19;1711066;81;27464;-64
2021/10/10 02:25:56;;;;;;;48.50;23.83;;;;;;;3.86;64.62;102391.27;1733286;81;25791;-64
2021/10/10 02:28:22;;;;;;;48.95;22.45;;;;;;;3.87;64.70;102387.73;1720325;82;25764;-64
2021/10/10 02:30:49;;;;;;;59.45;25.72;;;;;;;3.84;64.67;102386.37;1724111;81;26018;-64
2021/10/10 02:33:16;;;;;;;47.65;23.10;;;;;;;3.84;64.80;102386.81;1733090;81;25792;-64
2021/10/10 02:35:42;;;;;;;59.15;24.15;;;;;;;3.81;64.82;102382.36;1719465;81;27412;-64
2021/10/10 02:38:08;;;;;;;54.30;23.80;;;;;;;3.81;64.83;102370.86;1725991;81;33624;-64
2021/10/10 02:40:34;;;;;;;59.08;26.05;;;;;;;3.79;64.94;102369.95;1724186;81;31791;-64
2021/10/10 02:43:00;;;;;;;55.35;25.23;;;;;;;3.78;64.97;102374.80;1729245;81;26050;-63
2021/10/10 02:45:26;;;;;;;51.13;24.25;;;;;;;3.77;65.06;102365.06;1728136;81;25762;-63
2021/10/10 02:47:52;;;;;;;59.25;25.52;;;;;;;3.77;65.07;102370.36;1718511;81;27481;-64
2021/10/10 02:50:18;;;;;;;57.83;27.27;;;;;;;3.76;65.07;102367.26;1729613;80;25807;-66
2021/10/10 02:52:44;;;;;;;58.13;27.15;;;;;;;3.74;65.21;102361.94;1715894;81;25794;-64
2021/10/10 02:55:10;;;;;;;58.25;25.68;;;;;;;3.74;65.18;102358.39;1730272;81;26603;-64
2021/10/10 02:57:36;;;;;;;57.60;25.82;;;;;;;3.71;65.26;102367.20;1723431;81;25902;-63
2021/10/10 03:00:05;;;;;;;62.62;26.20;;;;;;;3.70;65.27;102364.53;1725592;81;28062;-64
2021/10/10 03:02:31;;;;;;;65.92;26.35;;;;;;;3.68;65.38;102365.84;1719476;81;26430;-64
2021/10/10 03:04:57;;;;;;;54.63;26.90;;;;;;;3.68;65.40;102353.02;1729349;80;25790;-64
2021/10/10 03:07:23;;;;;;;62.62;25.52;;;;;;;3.67;65.46;102356.53;1724406;81;26023;-64
2021/10/10 03:09:49;;;;;;;52.43;25.85;;;;;;;3.65;65.48;102355.63;1709993;81;25757;-64
2021/10/10 03:12:15;;;;;;;59.65;26.65;;;;;;;3.63;65.49;102356.05;1733322;81;28674;-64
2021/10/10 03:14:41;;;;;;;60.83;27.17;;;;;;;3.59;65.59;102357.33;1726378;80;30781;-64
2021/10/10 03:17:07;;;;;;;59.53;25.43;;;;;;;3.59;65.71;102356.01;1743037;81;25804;-64
2021/10/10 03:19:33;;;;;;;61.92;27.65;;;;;;;3.57;65.75;102352.88;1756798;80;26561;-64
2021/10/10 03:21:58;;;;;;;67.12;28.32;;;;;;;3.57;65.74;102355.53;1767696;79;25724;-64
2021/10/10 03:24:24;;;;;;;66.05;29.32;;;;;;;3.55;65.87;102353.30;1731776;80;27462;-64
2021/10/10 03:26:50;;;;;;;69.85;28.60;;;;;;;3.53;65.93;102352.39;1731411;81;33753;-64
2021/10/10 03:29:16;;;;;;;63.70;27.27;;;;;;;3.50;65.95;102346.61;1729303;80;25857;-64
2021/10/10 03:31:42;;;;;;;75.25;30.50;;;;;;;3.48;66.03;102347.46;1737129;81;26505;-64
2021/10/10 03:34:08;;;;;;;70.75;30.30;;;;;;;3.47;66.10;102347.90;1725656;81;25810;-64
2021/10/10 03:36:33;;;;;;;77.25;30.17;;;;;;;3.45;66.17;102344.77;1726964;81;27409;-64
2021/10/10 03:38:59;;;;;;;82.15;32.23;;;;;;;3.43;66.21;102343.86;1736476;81;34102;-64
2021/10/10 03:41:25;;;;;;;79.05;30.52;;;;;;;3.41;66.28;102339.87;1735857;80;25737;-64
2021/10/10 03:43:52;;;;;;;79.92;33.92;;;;;;;3.40;66.31;102337.20;1716183;80;26035;-64
2021/10/10 03:46:18;;;;;;;84.42;32.03;;;;;;;3.39;66.28;102340.28;1711202;81;26434;-64
2021/10/10 03:48:43;;;;;;;79.77;31.00;;;;;;;3.39;66.38;102331.44;1724820;80;28194;-64
2021/10/10 03:51:09;;;;;;;77.95;30.08;;;;;;;3.37;66.45;102328.77;1726609;81;33568;-64
2021/10/10 03:54:05;;;;;;;79.00;29.65;;;;;;;3.37;66.47;102327.88;1724887;81;30894;-64
2021/10/10 03:56:04;;;;;;;71.72;29.02;;;;;;;3.35;66.48;102323.88;1736133;80;26108;-64
2021/10/10 03:58:31;;;;;;;67.47;28.83;;;;;;;3.34;66.54;102320.78;1737372;80;26649;-64
2021/10/10 04:00:57;;;;;;;74.07;30.80;;;;;;;3.33;66.59;102318.11;1728195;80;27453;-64
2021/10/10 04:03:22;;;;;;;81.97;29.23;;;;;;;3.33;66.60;102322.08;1736157;81;33567;-64
2021/10/10 04:05:49;;;;;;;80.25;29.48;;;;;;;3.32;66.70;102318.54;1726209;81;26283;-64
2021/10/10 04:08:15;;;;;;;85.12;31.68;;;;;;;3.31;66.68;102311.89;1728415;81;26024;-63
2021/10/10 04:10:41;;;;;;;75.37;28.30;;;;;;;3.29;66.74;102315.85;1730484;81;25789;-64
2021/10/10 04:13:07;;;;;;;71.00;28.95;;;;;;;3.29;66.74;102307.02;1721351;81;26884;-66
2021/10/10 04:15:34;;;;;;;71.02;29.82;;;;;;;3.28;66.72;102314.50;1731253;81;26049;-66
2021/10/10 04:18:00;;;;;;;81.12;29.42;;;;;;;3.28;66.77;102308.77;1724619;80;26151;-66
2021/10/10 04:20:27;;;;;;;66.53;28.40;;;;;;;3.25;66.81;102312.27;1729327;81;26048;-66
2021/10/10 04:22:53;;;;;;;68.72;28.02;;;;;;;3.23;66.80;102303.41;1729897;80;25710;-63
2021/10/10 04:25:18;;;;;;;71.60;28.05;;;;;;;3.22;66.80;102304.72;1728815;80;27324;-63
2021/10/10 04:27:44;;;;;;;58.17;25.27;;;;;;;3.18;66.93;102310.84;1713035;81;33597;-66
2021/10/10 04:30:13;;;;;;;51.95;24.50;;;;;;;3.16;66.95;102308.61;1721687;80;30463;-63
2021/10/10 04:32:41;;;;;;;62.48;27.15;;;;;;;3.13;66.99;102302.83;1733767;80;26408;-63
2021/10/10 04:35:09;;;;;;;66.22;27.37;;;;;;;3.13;67.03;102303.27;1704197;80;26389;-64
2021/10/10 04:37:35;;;;;;;64.40;27.17;;;;;;;3.12;67.17;102295.75;1693622;82;28081;-64
2021/10/10 04:40:02;;;;;;;70.72;28.32;;;;;;;3.11;67.16;102300.59;1720537;80;34109;-63
2021/10/10 04:42:28;;;;;;;74.35;27.05;;;;;;;3.11;67.18;102302.36;1727954;80;25842;-63
2021/10/10 04:44:54;;;;;;;80.12;28.80;;;;;;;3.09;67.26;102297.47;1739082;80;28166;-63
2021/10/10 04:47:20;;;;;;;79.65;29.10;;;;;;;3.08;67.29;102294.37;1744156;80;25728;-66
2021/10/10 04:49:46;;;;;;;82.33;31.35;;;;;;;3.08;67.39;102300.98;1696071;82;26821;-66
2021/10/10 04:52:12;;;;;;;85.57;32.35;;;;;;;3.08;67.44;102297.91;1707010;81;33484;-66
2021/10/10 04:54:38;;;;;;;82.10;29.87;;;;;;;3.07;67.49;102297.88;1692420;82;26456;-66
2021/10/10 04:57:04;;;;;;;77.87;28.55;;;;;;;3.06;67.48;102296.11;1698459;82;26624;-66
2021/10/10 04:59:30;;;;;;;80.28;30.00;;;;;;;3.04;67.56;102296.08;1742696;81;26620;-66
2021/10/10 05:01:55;;;;;;;74.80;28.77;;;;;;;3.03;67.62;102294.73;1735039;80;27451;-66
2021/10/10 05:04:21;;;;;;;70.97;26.97;;;;;;;3.02;67.67;102298.25;1726174;80;34001;-66
2021/10/10 05:06:47;;;;;;;58.42;25.60;;;;;;;3.00;67.62;102302.20;1721864;81;25787;-66
2021/10/10 05:09:13;;;;;;;52.88;23.65;;;;;;;2.99;67.70;102300.86;1714410;80;26063;-66
2021/10/10 05:11:39;;;;;;;53.63;25.43;;;;;;;2.97;67.68;102303.92;1702115;82;25815;-66
2021/10/10 05:14:05;;;;;;;51.65;24.27;;;;;;;2.96;67.73;102302.14;1727560;80;28134;-66
2021/10/10 05:16:30;;;;;;;53.55;25.95;;;;;;;2.92;67.67;102299.45;1721505;80;33454;-66
2021/10/10 05:18:56;;;;;;;54.48;25.88;;;;;;;2.91;67.76;102296.78;1737246;80;29887;-66
2021/10/10 05:21:22;;;;;;;48.30;24.15;;;;;;;2.90;67.90;102306.48;1762611;79;25958;-66
2021/10/10 05:23:48;;;;;;;51.75;24.25;;;;;;;2.88;67.88;102300.27;1780337;78;25805;-66
2021/10/10 05:26:14;;;;;;;52.38;25.05;;;;;;;2.87;67.89;102300.25;1790019;78;28178;-65
2021/10/10 05:28:39;;;;;;;56.23;26.97;;;;;;;2.86;67.91;102295.39;1769827;79;33729;-65
2021/10/10 05:31:05;;;;;;;55.65;27.05;;;;;;;2.85;67.94;102300.23;1752106;79;30462;-65
2021/10/10 05:33:31;;;;;;;51.20;23.90;;;;;;;2.86;68.04;102305.09;1758921;78;26137;-66
2021/10/10 05:35:59;;;;;;;55.15;25.85;;;;;;;2.86;68.05;102300.69;1768301;79;25875;-66
2021/10/10 05:38:26;;;;;;;51.92;24.35;;;;;;;2.86;68.17;102299.36;1756329;79;27452;-65
2021/10/10 05:40:52;;;;;;;49.65;24.77;;;;;;;2.85;68.07;102298.91;1769619;79;26570;-65
2021/10/10 05:43:18;;;;;;;55.98;27.13;;;;;;;2.78;68.21;102290.84;1735702;81;30936;-65
2021/10/10 05:45:43;;;;;;;58.52;27.77;;;;;;;2.88;68.19;102304.67;1735442;80;26097;-65
2021/10/10 05:48:09;;;;;;;51.92;25.40;;;;;;;2.89;68.28;102303.81;1739679;80;26034;-65
2021/10/10 05:50:35;;;;;;;54.20;25.92;;;;;;;2.91;68.25;102304.29;1732979;81;27547;-65
2021/10/10 05:53:07;;;;;;;49.23;25.48;;;;;;;2.92;68.37;102307.39;1728136;81;29590;-65
2021/10/10 05:55:30;;;;;;;51.88;26.40;;;;;;;2.93;68.29;102301.66;1709660;83;25553;-64
2021/10/10 05:58:01;;;;;;;57.17;25.35;;;;;;;2.93;68.39;102302.55;1732225;80;26039;-65
2021/10/10 06:00:23;;;;;;;51.10;23.73;;;;;;;2.93;68.35;102299.91;1727864;80;25788;-65
2021/10/10 06:02:49;;;;;;;54.35;27.30;;;;;;;2.97;68.41;102301.27;1718208;81;29634;-65
2021/10/10 06:05:15;;;;;;;51.90;25.32;;;;;;;2.97;68.48;102293.33;1711488;82;33948;-64
2021/10/10 06:07:42;;;;;;;58.85;26.15;;;;;;;2.98;68.49;102299.08;1707787;82;25914;-65
2021/10/10 06:10:09;;;;;;;56.33;26.30;;;;;;;3.00;68.64;102299.99;1706979;82;26111;-65
2021/10/10 06:12:37;;;;;;;57.17;27.60;;;;;;;3.01;68.63;102294.72;1731569;80;25673;-65
2021/10/10 06:15:07;;;;;;;55.15;25.52;;;;;;;3.03;68.67;102298.27;1729601;81;27482;-67
2021/10/10 06:17:35;;;;;;;57.43;25.43;;;;;;;3.05;68.68;102302.27;1730891;80;25796;-64
2021/10/10 06:20:06;;;;;;;63.38;26.97;;;;;;;3.08;68.71;102300.98;1728574;81;26325;-65
2021/10/10 06:22:34;;;;;;;56.33;27.65;;;;;;;3.09;68.74;102296.14;1734771;81;26022;-65
2021/10/10 06:25:01;;;;;;;54.40;26.73;;;;;;;3.12;68.80;102294.86;1724381;81;25921;-65
2021/10/10 06:27:27;;;;;;;60.60;28.10;;;;;;;3.14;68.79;102299.31;1734177;81;27499;-64
2021/10/10 06:29:53;;;;;;;57.10;26.50;;;;;;;3.18;68.88;102300.25;1734579;80;25789;-65
2021/10/10 06:32:19;;;;;;;60.75;28.75;;;;;;;3.21;68.83;102298.96;1754415;79;30498;-66
2021/10/10 06:34:45;;;;;;;53.92;27.22;;;;;;;3.24;68.86;102295.91;1757482;79;25810;-65
2021/10/10 06:37:10;;;;;;;64.07;27.25;;;;;;;3.29;68.90;102297.30;1752647;79;25790;-67
2021/10/10 06:39:36;;;;;;;65.55;27.52;;;;;;;3.34;68.92;102294.27;1766160;79;27471;-65
2021/10/10 06:42:08;;;;;;;63.52;27.93;;;;;;;3.38;68.95;102292.55;1771182;79;34448;-65
2021/10/10 06:44:34;;;;;;;59.53;28.50;;;;;;;3.42;68.97;102291.72;1754774;79;25806;-65
2021/10/10 06:47:01;;;;;;;65.08;29.25;;;;;;;3.47;69.00;102297.53;1769219;79;26454;-65
2021/10/10 06:49:27;;;;;;;67.82;29.70;;;;;;;3.52;69.07;102297.15;1760070;79;25881;-65
2021/10/10 06:51:53;;;;;;;66.35;30.43;;;;;;;3.57;69.09;102298.09;1765596;78;27708;-65
2021/10/10 06:54:19;;;;;;;72.50;32.67;;;;;;;3.63;69.08;102293.73;1733797;81;34090;-65
2021/10/10 06:56:45;;;;;;;64.30;29.20;;;;;;;3.68;69.07;102299.98;1701840;82;25774;-65
2021/10/10 06:59:11;;;;;;;67.72;29.95;;;;;;;3.74;69.10;102302.70;1742017;80;25949;-65
2021/10/10 07:01:38;;;;;;;62.62;29.80;;;;;;;3.79;69.12;102303.20;1718792;80;25703;-65
2021/10/10 07:04:04;;;;;;;65.20;29.77;;;;;;;3.85;69.15;102302.38;1728850;80;27417;-65
2021/10/10 07:06:31;;;;;;;69.62;29.35;;;;;;;3.89;69.13;102295.80;1721509;81;25661;-65
2021/10/10 07:08:57;;;;;;;68.28;29.07;;;;;;;3.97;69.19;102305.16;1723917;81;26625;-65
2021/10/10 07:11:23;;;;;;;61.25;27.60;;;;;;;4.01;69.17;102301.67;1731273;81;26469;-66
2021/10/10 07:13:50;;;;;;;55.28;26.50;;;;;;;4.07;69.17;102300.41;1730447;81;25685;-65
2021/10/10 07:16:16;;;;;;;62.33;29.32;;;;;;;4.15;69.19;102301.37;1722814;81;29595;-67
2021/10/10 07:18:47;;;;;;;58.45;27.48;;;;;;;4.22;69.21;102300.98;1697613;82;25766;-65
2021/10/10 07:21:23;;;;;;;55.83;27.15;;;;;;;4.28;69.20;102297.50;1694155;82;26340;-64
2021/10/10 07:24:08;;;;;;;61.05;29.52;;;;;;;4.36;69.23;102298.45;1745215;80;26014;-65
2021/10/10 07:26:24;;;;;;;58.08;27.58;;;;;;;4.42;69.24;102301.16;1755464;79;25370;-67
2021/10/10 07:28:52;;;;;;;55.48;28.02;;;;;;;4.49;69.23;102299.01;1735068;79;27449;-64
2021/10/10 07:31:18;;;;;;;57.85;28.95;;;;;;;4.57;69.24;102299.95;1688197;82;26240;-64
2021/10/10 07:33:45;;;;;;;62.05;29.45;;;;;;;4.67;69.27;102307.11;1701978;81;25999;-66
2021/10/10 07:36:12;;;;;;;58.75;27.40;;;;;;;4.76;69.26;102303.64;1737758;81;26157;-66
2021/10/10 07:38:38;;;;;;;61.30;29.82;;;;;;;4.86;69.23;102305.48;1727638;80;25700;-63
2021/10/10 07:41:05;;;;;;;54.42;28.35;;;;;;;4.97;69.27;102310.86;1698843;82;27478;-63
2021/10/10 07:43:32;;;;;;;55.10;28.42;;;;;;;5.07;69.24;102307.38;1728770;81;25838;-64
2021/10/10 07:46:07;;;;;;;57.23;27.82;;;;;;;5.11;69.22;102299.88;1709610;82;26439;-65
2021/10/10 07:48:35;;;;;;;50.98;25.68;;;;;;;5.27;69.25;102304.36;1687678;82;26035;-65
2021/10/10 07:51:00;;;;;;;57.60;28.02;;;;;;;5.39;69.24;102307.08;1700409;82;25800;-65
2021/10/10 07:53:26;;;;;;;47.08;24.40;;;;;;;5.50;69.19;102307.12;1729646;80;29527;-66
2021/10/10 07:55:52;;;;;;;47.93;25.10;;;;;;;5.62;69.17;102305.84;1700363;82;25803;-65
2021/10/10 07:58:18;;;;;;;48.10;25.30;;;;;;;5.72;69.13;102305.42;1723886;80;25759;-64
2021/10/10 08:00:44;;;;;;;48.73;24.77;;;;;;;5.82;69.10;102308.56;1706228;82;26715;-64
2021/10/10 08:03:11;;;;;;;43.02;21.42;;;;;;;5.93;69.08;102304.63;1728520;81;26074;-65
2021/10/10 08:05:43;;;;;;;45.25;21.90;;;;;;;6.05;69.03;102302.88;1698911;82;27395;-65
2021/10/10 08:08:10;;;;;;;44.27;21.85;;;;;;;6.19;69.03;102300.23;1726834;81;25837;-65
2021/10/10 08:10:38;;;;;;;46.85;22.10;;;;;;;6.32;68.86;102300.69;1698514;82;25927;-65
2021/10/10 08:13:06;;;;;;;40.48;21.55;;;;;;;6.41;68.77;102303.80;1732318;80;26584;-66
2021/10/10 08:15:32;;;;;;;48.23;21.77;;;;;;;6.50;68.74;102298.48;1694163;82;26458;-65
2021/10/10 08:17:58;;;;;;;40.40;21.17;;;;;;;6.60;68.66;102295.37;1713693;82;29551;-65
2021/10/10 08:20:24;;;;;;;40.25;19.45;;;;;;;6.68;68.60;102298.91;1736367;81;25773;-66
2021/10/10 08:22:50;;;;;;;36.53;20.97;;;;;;;6.79;68.55;102295.80;1724262;81;25855;-65
2021/10/10 08:25:16;;;;;;;41.25;21.65;;;;;;;6.93;68.49;102297.99;1739259;80;25790;-65
2021/10/10 08:27:46;;;;;;;41.95;20.50;;;;;;;7.02;68.35;102295.75;1744514;80;25740;-65
2021/10/10 08:30:16;;;;;;;41.60;19.45;;;;;;;7.10;68.28;102297.95;1739565;81;28043;-66
2021/10/10 08:32:45;;;;;;;34.75;18.92;;;;;;;7.18;68.19;102293.94;1724058;81;25827;-65
2021/10/10 08:35:10;;;;;;;34.83;18.40;;;;;;;7.24;68.13;102278.80;1733146;80;25869;-66
2021/10/10 08:37:36;;;;;;;33.50;18.20;;;;;;;7.38;68.03;102288.97;1721515;81;26496;-65
2021/10/10 08:40:04;;;;;;;33.28;18.02;;;;;;;7.46;67.95;102289.83;1715791;82;25812;-66
2021/10/10 08:42:36;;;;;;;32.35;16.65;;;;;;;7.57;67.83;102284.89;1707555;82;28087;-66
2021/10/10 08:45:07;;;;;;;33.25;17.32;;;;;;;7.68;67.78;102287.94;1740033;81;25760;-67
2021/10/10 08:47:33;;;;;;;32.13;17.77;;;;;;;7.76;67.66;102284.78;1733908;81;25769;-66
2021/10/10 08:50:01;;;;;;;36.60;17.12;;;;;;;7.85;67.53;102277.14;1723532;81;26015;-66
2021/10/10 08:52:29;;;;;;;33.23;16.37;;;;;;;7.94;67.42;102281.53;1723852;81;25792;-66
2021/10/10 08:54:56;;;;;;;36.77;17.15;;;;;;;8.05;67.33;102278.34;1734276;81;28517;-67
2021/10/10 08:57:25;;;;;;;29.35;15.83;;;;;;;8.15;67.22;102277.38;1731478;81;26163;-66
2021/10/10 08:59:56;;;;;;;29.80;15.25;;;;;;;8.27;67.19;102273.28;1732709;81;26403;-65
2021/10/10 09:02:24;;;;;;;30.72;15.98;;;;;;;8.43;67.08;102272.74;1730699;81;26619;-65
2021/10/10 09:04:48;;;;;;;29.15;14.40;;;;;;;8.50;66.85;102260.22;1723111;81;26038;-65
2021/10/10 09:07:14;;;;;;;30.50;15.32;;;;;;;8.61;66.66;102265.02;1724059;80;29571;-64
2021/10/10 09:09:41;;;;;;;35.43;16.02;;;;;;;8.72;66.54;102268.47;1716464;80;27228;-65
2021/10/10 09:12:10;;;;;;;28.27;14.28;;;;;;;8.81;66.36;102267.49;1714250;79;25694;-65
2021/10/10 09:14:48;;;;;;;24.40;13.65;;;;;;;8.90;66.30;102266.06;1736415;81;26648;-65
2021/10/10 09:17:43;;;;;;;22.48;12.33;;;;;;;9.01;66.12;102267.72;1701516;82;25801;-65
2021/10/10 09:20:11;;;;;;;34.35;12.68;;;;;;;9.10;65.95;102264.05;1679604;83;27452;-65
2021/10/10 09:22:37;;;;;;;26.80;12.85;;;;;;;9.22;65.76;102263.91;1724015;80;25825;-67
2021/10/10 09:25:11;;;;;;;27.55;13.38;;;;;;;9.31;65.57;102258.90;1731111;80;25958;-67
2021/10/10 09:27:37;;;;;;;22.82;11.90;;;;;;;9.36;65.40;102257.05;1744432;80;26594;-66
2021/10/10 09:30:05;;;;;;;28.52;14.25;;;;;;;9.47;65.43;102255.58;1732879;80;25805;-66
2021/10/10 09:32:32;;;;;;;25.82;12.28;;;;;;;9.60;65.05;102246.02;1730247;80;28470;-65
2021/10/10 09:34:58;;;;;;;21.35;12.75;;;;;;;9.68;64.89;102245.47;1678720;82;25869;-66
2021/10/10 09:37:48;;;;;;;20.45;11.60;;;;;;;9.67;64.69;102234.33;1690754;83;25732;-66
2021/10/10 09:40:14;;;;;;;21.52;12.33;;;;;;;9.77;64.53;102243.11;1678365;83;26234;-65
2021/10/10 09:42:43;;;;;;;20.72;11.43;;;;;;;9.85;64.39;102242.55;1673962;83;25788;-65
2021/10/10 09:45:30;;;;;;;22.70;11.70;;;;;;;9.94;64.21;102241.06;1693251;82;27385;-66
2021/10/10 09:48:00;;;;;;;23.25;12.20;;;;;;;10.02;63.93;102243.17;1689035;83;26432;-65
2021/10/10 09:50:33;;;;;;;16.32;10.58;;;;;;;10.11;63.73;102234.56;1689121;83;25701;-66
2021/10/10 09:53:06;;;;;;;23.70;10.68;;;;;;;10.21;63.63;102237.55;1691006;82;26094;-66
2021/10/10 09:55:54;;;;;;;21.10;10.98;;;;;;;10.29;63.44;102233.84;1690053;83;44948;-66
2021/10/10 09:58:42;;;;;;;20.60;10.43;;;;;;;10.37;63.27;102229.23;1695616;82;27541;-66
2021/10/10 10:01:23;;;;;;;17.42;10.30;;;;;;;10.45;63.01;102227.72;1695943;82;27126;-66
2021/10/10 10:04:09;;;;;;;21.05;10.08;;;;;;;10.53;62.83;102232.49;1683559;83;25855;-65
2021/10/10 10:06:38;;;;;;;19.62;10.15;;;;;;;10.61;62.54;102233.24;1697193;83;27197;-65
2021/10/10 10:09:09;;;;;;;18.15;10.13;;;;;;;10.69;62.37;102227.28;1682530;83;25783;-65
2021/10/10 10:11:44;;;;;;;26.30;11.30;;;;;;;10.80;62.15;102220.83;1688774;83;27600;-65
2021/10/10 10:14:14;;;;;;;24.55;12.40;;;;;;;10.90;61.96;102219.74;1686356;82;26270;-64
2021/10/10 10:16:49;;;;;;;24.40;10.35;;;;;;;10.99;61.78;102212.85;1686210;82;25340;-63
2021/10/10 10:19:23;;;;;;;17.42;8.45;;;;;;;11.13;61.55;102218.82;1704428;82;26678;-63
2021/10/10 10:21:56;;;;;;;15.58;8.45;;;;;;;11.17;61.30;102207.11;1734843;80;25747;-64
2021/10/10 10:24:24;;;;;;;14.38;8.18;;;;;;;11.33;61.08;102209.89;1742184;80;27574;-64
2021/10/10 10:26:51;;;;;;;14.43;8.30;;;;;;;11.43;60.95;102207.89;1740678;80;25933;-64
2021/10/10 10:29:27;;;;;;;14.47;7.42;;;;;;;11.53;60.68;102202.74;1733908;80;25828;-65
2021/10/10 10:31:57;;;;;;;14.80;7.55;;;;;;;11.62;60.43;102203.88;1743319;81;26063;-65
2021/10/10 10:34:26;;;;;;;13.40;7.65;;;;;;;11.71;60.18;102197.41;1726209;80;25967;-64
2021/10/10 10:37:10;;;;;;;12.75;7.75;;;;;;;11.81;59.97;102190.05;1736633;80;28282;-65
2021/10/10 10:39:48;;;;;;;10.50;6.83;;;;;;;11.90;59.68;102194.75;1743016;80;26377;-64
2021/10/10 10:42:28;;;;;;;14.53;7.28;;;;;;;12.02;59.42;102190.88;1734300;80;25849;-64
2021/10/10 10:44:55;;;;;;;19.53;7.80;;;;;;;12.14;59.03;102187.88;1734573;81;26563;-63
2021/10/10 10:47:25;;;;;;;13.50;7.78;;;;;;;12.22;58.84;102185.00;1738704;80;25826;-64
2021/10/10 10:49:59;;;;;;;18.00;7.78;;;;;;;12.31;58.41;102186.99;1722759;80;27571;-65
2021/10/10 10:52:33;;;;;;;14.58;7.20;;;;;;;12.42;58.22;102172.38;1704945;82;25561;-67
2021/10/10 10:55:16;;;;;;;11.35;6.37;;;;;;;12.52;58.04;102170.75;1676009;82;26012;-65
2021/10/10 10:57:59;;;;;;;14.65;6.78;;;;;;;12.58;57.72;102171.93;1680277;83;26121;-65
2021/10/10 11:00:34;;;;;;;13.03;6.83;;;;;;;12.65;57.46;102169.49;1691447;83;25839;-63
2021/10/10 11:03:21;;;;;;;15.48;7.47;;;;;;;12.77;57.24;102167.38;1680002;83;27402;-64
2021/10/10 11:05:57;;;;;;;14.33;7.90;;;;;;;12.88;56.86;102167.96;1676326;83;25826;-64
2021/10/10 11:08:29;;;;;;;12.40;6.75;;;;;;;12.96;56.17;102169.97;1692645;83;25759;-65
2021/10/10 11:11:08;;;;;;;12.03;7.30;;;;;;;13.11;56.03;102158.72;1682958;82;27557;-65
2021/10/10 11:13:42;;;;;;;21.20;6.37;;;;;;;13.22;55.41;102154.39;1654544;83;26103;-66
2021/10/10 11:16:32;;;;;;;10.55;6.03;;;;;;;13.31;55.04;102159.50;1748451;80;27819;-65
2021/10/10 11:19:09;;;;;;;16.57;7.25;;;;;;;13.39;54.89;102155.23;1734887;80;25968;-65
2021/10/10 11:21:44;;;;;;;12.78;7.58;;;;;;;13.50;54.70;102143.19;1730134;81;25719;-67